Time;durP1;ratioP1;P1;durP2;ratioP2;P2;SDS_P1;SDS_P2;PMS_P1;PMS_P2;Temp;Humidity;BMP_temperature;BMP_pressure;BME280_temperature;BME280_humidity;BME280_pressure;Samples;Min_cycle;Max_cycle;Signal;HPM_P1;HPM_P2
2021/11/08 00:00:32;;;;;;;6.63;6.03;;;;;;;5.62;98.56;95856.66;5043784;28;20221;-73
2021/11/08 00:03:07;;;;;;;6.07;5.67;;;;;;;5.62;98.56;95851.41;5038335;28;20214;-74
2021/11/08 00:05:39;;;;;;;6.13;5.73;;;;;;;5.61;98.57;95860.25;5039762;28;20252;-73
2021/11/08 00:08:07;;;;;;;7.43;6.90;;;;;;;5.68;98.54;95856.06;5026531;28;20239;-73
2021/11/08 00:10:36;;;;;;;8.47;5.43;;;;;;;5.58;98.29;95850.91;5023911;28;20206;-73
2021/11/08 00:13:08;;;;;;;4.40;4.00;;;;;;;5.58;98.54;95850.91;5030498;28;20218;-74
2021/11/08 00:15:45;;;;;;;5.13;4.83;;;;;;;5.59;98.47;95849.09;5037553;28;20227;-73
2021/11/08 00:18:21;;;;;;;6.70;6.03;;;;;;;5.53;98.40;95853.13;5029814;28;20247;-73
2021/11/08 00:20:51;;;;;;;5.93;5.50;;;;;;;5.41;98.61;95855.13;5038470;28;20227;-73
2021/11/08 00:23:19;;;;;;;5.57;5.17;;;;;;;5.31;99.24;95859.59;5033613;28;20371;-74
2021/11/08 00:25:48;;;;;;;6.30;5.80;;;;;;;5.32;99.28;95858.63;5037128;28;20593;-73
2021/11/08 00:28:19;;;;;;;5.93;5.20;;;;;;;5.39;99.21;95866.69;5039066;28;20224;-73
2021/11/08 00:30:49;;;;;;;5.67;5.17;;;;;;;5.25;99.20;95865.41;5037230;28;20221;-72
2021/11/08 00:33:19;;;;;;;5.43;5.00;;;;;;;5.22;99.56;95855.25;5036855;28;20226;-73
2021/11/08 00:35:50;;;;;;;5.40;5.00;;;;;;;5.29;99.52;95860.69;5034783;28;20218;-73
2021/11/08 00:38:20;;;;;;;5.07;4.67;;;;;;;5.23;99.38;95862.13;5024347;28;20219;-73
2021/11/08 00:40:48;;;;;;;4.67;4.07;;;;;;;5.28;99.28;95864.28;5031114;28;20235;-74
2021/11/08 00:43:18;;;;;;;4.80;4.50;;;;;;;5.27;99.16;95868.69;5043447;28;20231;-73
2021/11/08 00:45:48;;;;;;;5.50;5.20;;;;;;;5.24;99.19;95863.78;5035073;28;20437;-73
2021/11/08 00:48:17;;;;;;;9.97;6.40;;;;;;;5.20;98.96;95870.25;5023377;28;20314;-74
2021/11/08 00:50:46;;;;;;;5.47;5.13;;;;;;;5.25;99.20;95872.44;5023990;28;20220;-73
2021/11/08 00:53:14;;;;;;;7.50;5.87;;;;;;;5.26;99.21;95881.94;5024289;28;20268;-73
2021/11/08 00:55:44;;;;;;;5.40;4.93;;;;;;;5.14;99.24;95886.53;5025988;28;20233;-72
2021/11/08 00:58:18;;;;;;;4.70;3.77;;;;;;;5.24;99.27;95889.09;5023649;28;20221;-73
2021/11/08 01:00:48;;;;;;;5.03;4.53;;;;;;;5.28;99.01;95896.50;5024448;28;20286;-73
2021/11/08 01:03:20;;;;;;;4.80;4.40;;;;;;;5.31;99.05;95888.38;5022611;28;20228;-73
2021/11/08 01:05:49;;;;;;;4.33;4.03;;;;;;;5.29;98.87;95889.47;5035297;28;20227;-73
2021/11/08 01:08:17;;;;;;;6.53;5.47;;;;;;;5.32;98.67;95890.03;5039198;28;20225;-73
2021/11/08 01:10:46;;;;;;;5.13;4.23;;;;;;;5.32;98.44;95890.03;5036613;28;20218;-73
2021/11/08 01:13:14;;;;;;;4.70;4.40;;;;;;;5.35;98.25;95896.75;5038729;28;20300;-73
2021/11/08 01:15:42;;;;;;;3.90;3.60;;;;;;;5.28;98.29;95888.66;5035189;28;20226;-74
2021/11/08 01:18:13;;;;;;;3.87;3.63;;;;;;;5.33;98.68;95889.06;5022211;28;20222;-74
2021/11/08 01:20:45;;;;;;;5.57;4.97;;;;;;;5.13;98.98;95905.81;5023442;28;20320;-75
2021/11/08 01:23:18;;;;;;;4.70;4.40;;;;;;;5.11;99.51;95905.94;5023794;28;20226;-73
2021/11/08 01:25:55;;;;;;;5.40;5.03;;;;;;;5.10;99.28;95903.47;5036161;28;20221;-73
2021/11/08 01:28:31;;;;;;;5.23;4.73;;;;;;;5.06;99.89;95896.91;5043360;28;20237;-74
2021/11/08 01:30:59;;;;;;;7.33;5.70;;;;;;;5.04;100.00;95898.84;5042904;28;20233;-74
2021/11/08 01:33:29;;;;;;;5.83;4.17;;;;;;;5.03;100.00;95902.41;5038992;28;20808;-74
2021/11/08 01:36:12;;;;;;;4.40;4.10;;;;;;;5.14;99.91;95899.63;5038406;28;20589;-73
2021/11/08 01:38:43;;;;;;;4.13;3.83;;;;;;;5.19;99.61;95897.38;5038137;28;20229;-74
2021/11/08 01:41:13;;;;;;;4.87;4.47;;;;;;;5.18;99.38;95890.50;5035225;28;20218;-74
2021/11/08 01:43:42;;;;;;;4.03;3.77;;;;;;;5.20;99.33;95883.31;5037389;28;20271;-73
2021/11/08 01:46:11;;;;;;;5.10;4.60;;;;;;;5.23;99.13;95893.53;5040586;28;20225;-74
2021/11/08 01:48:41;;;;;;;3.77;3.57;;;;;;;5.25;98.93;95890.75;5039810;28;20254;-74
2021/11/08 01:51:10;;;;;;;4.47;4.17;;;;;;;5.20;98.84;95891.19;5041583;28;20814;-72
2021/11/08 01:53:40;;;;;;;5.27;3.50;;;;;;;5.21;98.62;95892.84;5037299;28;20246;-74
2021/11/08 01:56:08;;;;;;;3.03;2.50;;;;;;;5.27;98.45;95894.03;5036373;28;20233;-73
2021/11/08 01:58:38;;;;;;;5.43;4.80;;;;;;;5.23;98.31;95890.91;5036264;28;20234;-73
2021/11/08 02:01:06;;;;;;;3.47;3.27;;;;;;;5.27;98.17;95900.09;5024908;28;20254;-73
2021/11/08 02:03:37;;;;;;;5.50;4.03;;;;;;;5.17;98.30;95901.13;5032543;28;20238;-73
2021/11/08 02:06:07;;;;;;;2.80;2.60;;;;;;;5.09;98.50;95901.84;5037937;28;20305;-73
2021/11/08 02:08:37;;;;;;;4.07;3.77;;;;;;;5.06;98.84;95896.91;5035967;28;20242;-73
2021/11/08 02:11:06;;;;;;;2.37;2.27;;;;;;;5.09;98.74;95900.03;5034587;28;20580;-73
2021/11/08 02:13:35;;;;;;;4.07;3.67;;;;;;;5.13;98.72;95897.97;5043047;28;20309;-72
2021/11/08 02:16:03;;;;;;;2.60;2.40;;;;;;;5.12;98.82;95898.91;5037129;28;20230;-72
2021/11/08 02:18:34;;;;;;;2.93;2.73;;;;;;;5.07;98.93;95899.38;5036231;28;20255;-73
2021/11/08 02:21:07;;;;;;;4.53;3.97;;;;;;;5.00;99.06;95897.47;5040950;28;20227;-73
2021/11/08 02:23:36;;;;;;;4.27;3.40;;;;;;;5.06;99.26;95902.13;5021301;28;20219;-73
2021/11/08 02:26:07;;;;;;;5.43;3.83;;;;;;;5.09;99.28;95902.66;5010173;28;20227;-73
2021/11/08 02:28:35;;;;;;;4.20;3.90;;;;;;;5.11;98.87;95905.13;5003547;28;20317;-74
2021/11/08 02:31:03;;;;;;;3.20;3.00;;;;;;;5.19;99.07;95920.09;5009160;28;20208;-72
2021/11/08 02:33:32;;;;;;;3.87;3.67;;;;;;;5.16;98.85;95915.16;5021561;28;20273;-73
2021/11/08 02:36:00;;;;;;;7.93;3.70;;;;;;;5.00;98.96;95918.38;5019236;28;20223;-73
2021/11/08 02:38:30;;;;;;;4.13;3.90;;;;;;;5.01;99.24;95905.16;5020590;28;20254;-74
2021/11/08 02:41:00;;;;;;;3.27;3.07;;;;;;;5.09;99.30;95913.13;5020448;28;20281;-73
2021/11/08 02:43:30;;;;;;;2.90;2.43;;;;;;;5.17;99.47;95920.25;5019450;28;20219;-73
2021/11/08 02:46:05;;;;;;;2.90;2.70;;;;;;;5.19;99.18;95913.06;5026251;28;20227;-73
2021/11/08 02:48:34;;;;;;;2.60;2.40;;;;;;;5.21;99.15;95913.78;5024764;28;20229;-73
2021/11/08 02:51:09;;;;;;;3.63;3.33;;;;;;;5.22;99.10;95918.03;5021919;28;20241;-72
2021/11/08 02:53:40;;;;;;;3.40;2.40;;;;;;;5.16;98.74;95913.38;5040169;28;20271;-73
2021/11/08 02:56:09;;;;;;;4.17;3.20;;;;;;;5.09;98.41;95928.00;5033776;28;20738;-72
2021/11/08 02:58:42;;;;;;;3.53;3.33;;;;;;;5.17;98.15;95920.25;5040192;28;20779;-73
2021/11/08 03:01:12;;;;;;;4.77;3.57;;;;;;;5.20;98.15;95917.34;5044375;28;20284;-73
2021/11/08 03:03:42;;;;;;;3.20;3.00;;;;;;;5.19;98.09;95918.31;5039542;28;20219;-73
2021/11/08 03:06:14;;;;;;;4.70;2.77;;;;;;;5.23;97.79;95919.69;5042798;28;20219;-73
2021/11/08 03:08:44;;;;;;;5.80;3.30;;;;;;;5.31;97.62;95926.81;5037598;28;20230;-74
2021/11/08 03:11:12;;;;;;;3.03;2.80;;;;;;;5.32;97.60;95924.06;5042663;28;20234;-73
2021/11/08 03:13:50;;;;;;;3.40;3.10;;;;;;;5.27;97.34;95926.25;5041847;28;20218;-72
2021/11/08 03:16:23;;;;;;;3.03;2.83;;;;;;;5.23;97.20;95921.47;5041597;28;20310;-73
2021/11/08 03:18:56;;;;;;;2.83;2.67;;;;;;;5.26;97.37;95924.63;5042526;28;20273;-72
2021/11/08 03:21:25;;;;;;;2.83;2.63;;;;;;;5.28;97.13;95927.09;5032784;28;20223;-73
2021/11/08 03:23:58;;;;;;;3.40;2.73;;;;;;;5.30;97.24;95926.00;5041759;28;20321;-73
2021/11/08 03:26:36;;;;;;;2.40;2.20;;;;;;;5.30;97.13;95923.38;5040293;28;20473;-72
2021/11/08 03:29:05;;;;;;;3.07;2.87;;;;;;;5.30;97.24;95920.75;5033179;28;20268;-72
2021/11/08 03:31:35;;;;;;;3.17;2.93;;;;;;;5.27;97.21;95921.03;5036308;28;20606;-72
2021/11/08 03:34:03;;;;;;;3.20;2.63;;;;;;;5.27;97.35;95910.56;5024754;28;20260;-72
2021/11/08 03:36:31;;;;;;;4.13;3.83;;;;;;;5.30;96.99;95909.44;5035584;28;20339;-73
2021/11/08 03:39:01;;;;;;;2.47;2.03;;;;;;;5.27;96.98;95910.56;5038694;28;20615;-73
2021/11/08 03:41:29;;;;;;;2.63;2.13;;;;;;;5.25;96.96;95915.13;5036631;28;20219;-73
2021/11/08 03:44:00;;;;;;;2.27;2.07;;;;;;;5.22;96.96;95915.44;5025302;28;20679;-73
2021/11/08 03:46:29;;;;;;;3.20;2.57;;;;;;;5.21;97.11;95913.78;5024797;28;20223;-73
2021/11/08 03:48:57;;;;;;;2.97;2.67;;;;;;;5.32;96.57;95910.97;5025771;28;20303;-72
2021/11/08 03:51:26;;;;;;;5.70;4.90;;;;;;;5.35;95.78;95921.13;5024496;28;20247;-73
2021/11/08 03:53:54;;;;;;;3.57;2.67;;;;;;;5.33;95.36;95920.47;5031543;28;20774;-73
2021/11/08 03:56:24;;;;;;;3.53;3.23;;;;;;;5.27;95.56;95925.44;5040332;28;20621;-74
2021/11/08 03:58:54;;;;;;;4.17;3.87;;;;;;;5.27;95.18;95930.66;5040205;28;20444;-73
2021/11/08 04:01:22;;;;;;;5.33;2.53;;;;;;;5.31;95.47;95932.06;5040129;28;20570;-72
2021/11/08 04:03:50;;;;;;;6.17;5.67;;;;;;;5.20;95.44;95935.66;5035797;28;20707;-72
2021/11/08 04:06:18;;;;;;;2.73;2.53;;;;;;;5.11;95.44;95939.94;5034215;28;20715;-72
2021/11/08 04:08:47;;;;;;;2.70;2.50;;;;;;;5.03;95.72;95936.41;5037448;28;20471;-73
2021/11/08 04:11:15;;;;;;;3.13;2.90;;;;;;;4.97;96.13;95939.59;5035910;28;20246;-72
2021/11/08 04:13:45;;;;;;;2.80;1.90;;;;;;;4.93;96.18;95940.84;5039750;28;20222;-73
2021/11/08 04:16:15;;;;;;;2.47;2.23;;;;;;;4.89;96.38;95942.09;5036955;28;20441;-72
2021/11/08 04:18:49;;;;;;;3.73;2.23;;;;;;;4.81;96.44;95941.00;5035761;28;20760;-72
2021/11/08 04:21:18;;;;;;;2.23;2.13;;;;;;;4.77;96.41;95950.13;5034731;28;20261;-74
2021/11/08 04:23:47;;;;;;;3.37;2.27;;;;;;;4.71;96.58;95953.28;5030283;28;20227;-73
2021/11/08 04:26:18;;;;;;;3.30;3.10;;;;;;;4.66;96.58;95955.47;5033793;28;20311;-72
2021/11/08 04:28:52;;;;;;;5.30;2.43;;;;;;;4.56;96.45;95949.44;5035522;28;20559;-73
2021/11/08 04:31:22;;;;;;;2.20;2.10;;;;;;;4.48;96.39;95954.53;5031580;28;20218;-73
2021/11/08 04:33:52;;;;;;;3.30;3.10;;;;;;;4.41;96.11;95953.47;5034314;28;20207;-72
2021/11/08 04:39:15;;;;;;;3.60;3.30;;;;;;;4.08;96.49;95949.47;5030273;28;20559;-73
2021/11/08 04:41:51;;;;;;;3.50;3.30;;;;;;;4.01;96.85;95954.41;5017668;28;20246;-73
2021/11/08 04:44:56;;;;;;;2.70;2.10;;;;;;;3.99;96.77;95964.16;5007063;28;20230;-73
2021/11/08 04:50:14;;;;;;;2.50;2.27;;;;;;;3.91;96.73;95957.00;5036113;28;20282;-73
2021/11/08 04:52:59;;;;;;;3.57;3.27;;;;;;;3.92;96.94;95947.38;5026147;28;20217;-72
2021/11/08 04:55:40;;;;;;;3.27;2.93;;;;;;;3.88;97.20;95959.06;5012934;28;20238;-73
2021/11/08 05:23:35;;;;;;;2.70;2.33;;;;;;;3.41;97.79;95964.06;5012951;28;20245;-72
2021/11/08 05:31:31;;;;;;;7.83;4.03;;;;;;;3.36;98.40;95974.88;5009429;28;20706;-72
2021/11/08 05:34:00;;;;;;;2.80;2.60;;;;;;;3.39;98.54;95968.59;5013303;28;20224;-72
2021/11/08 05:36:28;;;;;;;8.07;4.90;;;;;;;3.44;98.42;95979.44;5014947;28;20712;-73
2021/11/08 05:38:57;;;;;;;4.57;4.27;;;;;;;3.37;98.52;95978.31;5013001;28;20286;-73
2021/11/08 05:41:26;;;;;;;3.27;3.07;;;;;;;3.28;98.78;95984.31;5014442;28;20229;-72
2021/11/08 05:43:53;;;;;;;3.13;2.97;;;;;;;3.19;98.20;95991.13;5010627;28;20252;-72
2021/11/08 05:46:22;;;;;;;3.77;3.33;;;;;;;3.15;98.75;95994.97;5013412;28;20217;-72
2021/11/08 05:48:50;;;;;;;3.43;3.13;;;;;;;3.00;98.24;95997.06;5017262;28;20730;-73
2021/11/08 05:51:19;;;;;;;3.30;3.00;;;;;;;2.96;98.45;96006.13;5011217;28;20278;-72
2021/11/08 05:53:49;;;;;;;3.27;3.07;;;;;;;2.90;98.38;96006.63;5012801;28;20708;-71
2021/11/08 05:56:21;;;;;;;3.60;3.30;;;;;;;2.77;98.80;96008.59;5007907;28;20301;-71
2021/11/08 05:59:14;;;;;;;2.20;2.10;;;;;;;2.72;98.14;96008.16;5012836;28;20244;-71
2021/11/08 06:49:16;;;;;;;2.03;1.27;;;;;;;1.99;99.53;96062.63;5017317;28;20312;-71
2021/11/08 06:51:44;;;;;;;1.60;1.50;;;;;;;2.05;99.47;96063.94;5022472;28;20798;-70
2021/11/08 06:54:12;;;;;;;6.17;1.70;;;;;;;2.12;99.73;96061.69;5016960;28;20216;-70
2021/11/08 06:56:49;;;;;;;2.37;1.53;;;;;;;2.18;99.86;96058.56;5010173;28;20235;-71
2021/11/08 06:59:19;;;;;;;3.23;2.13;;;;;;;2.24;99.88;96068.50;5007171;28;20340;-70
2021/11/08 07:01:48;;;;;;;3.47;1.87;;;;;;;2.28;99.56;96070.72;5004896;28;20299;-70
2021/11/08 07:04:18;;;;;;;6.30;4.30;;;;;;;2.36;99.88;96066.69;5007103;28;20330;-71
2021/11/08 07:06:46;;;;;;;5.23;4.70;;;;;;;2.36;99.94;96080.53;5006732;28;20314;-71
2021/11/08 07:09:16;;;;;;;2.27;2.07;;;;;;;2.45;99.55;96071.16;5023051;28;20231;-71
2021/11/08 07:11:46;;;;;;;7.47;4.60;;;;;;;2.43;99.20;96076.50;5021854;28;20235;-71
2021/11/08 07:14:15;;;;;;;2.90;2.70;;;;;;;2.53;99.23;96077.41;5012714;28;20228;-70
2021/11/08 07:16:44;;;;;;;7.23;4.37;;;;;;;2.62;99.37;96080.22;5046684;28;20305;-71
2021/11/08 07:19:13;;;;;;;1.97;1.87;;;;;;;2.80;98.97;96083.91;5041991;28;20251;-71
2021/11/08 07:21:42;;;;;;;2.00;1.57;;;;;;;2.98;99.09;96079.81;5038982;28;20271;-72
2021/11/08 07:24:10;;;;;;;1.60;1.50;;;;;;;3.16;99.68;96079.22;5032794;28;20784;-70
2021/11/08 07:26:39;;;;;;;1.83;1.67;;;;;;;3.32;98.91;96079.59;5038247;28;20253;-70
2021/11/08 07:29:08;;;;;;;7.80;1.80;;;;;;;3.49;98.64;96086.84;5046527;28;20286;-71
2021/11/08 07:31:37;;;;;;;3.53;3.30;;;;;;;3.64;98.73;96077.69;5042631;28;20246;-70
2021/11/08 07:34:06;;;;;;;3.17;2.97;;;;;;;3.78;97.91;96081.75;5044957;28;20521;-71
2021/11/08 07:36:35;;;;;;;3.40;3.03;;;;;;;3.94;97.88;96081.25;5041082;28;20258;-70
2021/11/08 07:39:05;;;;;;;3.87;3.43;;;;;;;4.20;97.96;96087.63;5030963;28;20775;-70
2021/11/08 07:41:33;;;;;;;9.33;4.63;;;;;;;4.42;97.83;96081.38;5038207;28;20225;-72
2021/11/08 07:44:03;;;;;;;4.17;2.63;;;;;;;4.70;98.05;96074.50;5042618;28;20221;-70
2021/11/08 07:46:32;;;;;;;2.90;2.70;;;;;;;5.07;97.33;96079.03;5041393;28;20226;-70
2021/11/08 07:49:00;;;;;;;3.73;3.43;;;;;;;5.37;96.55;96078.81;5030675;28;20688;-70
2021/11/08 07:51:28;;;;;;;5.63;4.27;;;;;;;5.64;95.41;96064.16;5034136;28;20225;-70
2021/11/08 07:53:57;;;;;;;3.90;3.60;;;;;;;5.96;94.77;96067.22;5029773;28;20699;-71
2021/11/08 07:56:25;;;;;;;3.43;3.23;;;;;;;6.26;93.79;96057.41;5034109;28;20278;-69
2021/11/08 07:58:54;;;;;;;4.33;3.90;;;;;;;6.40;92.68;96062.16;5041082;28;20247;-71
2021/11/08 08:01:23;;;;;;;3.47;3.20;;;;;;;6.45;92.18;96065.13;5042872;28;20246;-70
2021/11/08 08:03:52;;;;;;;3.97;3.67;;;;;;;6.45;93.39;96059.06;5037929;28;20230;-70
2021/11/08 08:06:21;;;;;;;4.17;3.77;;;;;;;6.75;93.35;96063.94;5041817;28;20653;-70
2021/11/08 08:08:50;;;;;;;7.50;5.37;;;;;;;6.96;92.27;96057.59;5030891;28;20314;-71
2021/11/08 08:11:20;;;;;;;3.53;3.33;;;;;;;7.19;91.83;96053.47;5025147;28;20222;-73
2021/11/08 08:13:49;;;;;;;3.70;3.50;;;;;;;7.85;90.50;96054.69;5027934;28;20273;-72
2021/11/08 08:16:18;;;;;;;8.53;5.40;;;;;;;8.18;87.68;96055.66;5028416;28;21034;-71
2021/11/08 08:18:48;;;;;;;6.93;3.70;;;;;;;8.33;86.59;96058.50;5025937;28;20640;-72
2021/11/08 08:21:20;;;;;;;4.57;2.93;;;;;;;8.30;83.17;96056.19;5026582;28;21007;-71
2021/11/08 08:23:54;;;;;;;4.03;3.70;;;;;;;8.51;82.24;96049.53;5025335;28;21280;-71
2021/11/08 08:26:25;;;;;;;3.00;2.70;;;;;;;8.61;78.91;96048.56;5032759;28;20222;-72
2021/11/08 08:28:53;;;;;;;6.97;2.90;;;;;;;8.59;76.65;96042.63;5040325;28;20229;-71
2021/11/08 08:31:22;;;;;;;6.23;4.27;;;;;;;8.70;78.44;96044.97;5025994;28;20281;-71
2021/11/08 08:33:50;;;;;;;3.97;3.23;;;;;;;8.62;75.30;96047.59;5024790;28;20704;-71
2021/11/08 08:36:20;;;;;;;4.63;2.40;;;;;;;9.30;75.45;96053.34;5027059;28;20221;-71
2021/11/08 08:38:50;;;;;;;4.67;2.60;;;;;;;10.56;71.16;96050.81;5041114;28;20231;-71
2021/11/08 08:41:19;;;;;;;5.30;2.33;;;;;;;12.25;64.80;96046.00;5039136;28;20240;-71
2021/11/08 08:43:47;;;;;;;1.47;1.37;;;;;;;13.51;62.38;96047.28;5045280;28;20226;-71
2021/11/08 08:46:16;;;;;;;3.27;2.97;;;;;;;13.97;61.65;96033.53;5037779;28;20704;-71
2021/11/08 08:48:44;;;;;;;8.13;3.07;;;;;;;14.06;60.85;96042.97;5043097;28;20281;-72
2021/11/08 08:51:13;;;;;;;1.33;1.23;;;;;;;13.38;63.35;96045.38;5046765;28;20223;-71
2021/11/08 08:53:43;;;;;;;2.53;1.10;;;;;;;12.63;64.57;96045.84;5044026;28;20219;-71
2021/11/08 08:56:20;;;;;;;3.20;1.43;;;;;;;11.89;65.66;96053.88;5037321;28;20757;-71
2021/11/08 08:58:49;;;;;;;4.17;1.90;;;;;;;11.34;66.86;96060.34;5045766;28;20250;-71
2021/11/08 09:01:17;;;;;;;3.20;2.47;;;;;;;10.93;67.92;96058.00;5045350;28;20297;-71
2021/11/08 09:03:46;;;;;;;3.17;2.50;;;;;;;10.92;69.45;96066.09;5032795;28;20596;-71
2021/11/08 09:06:14;;;;;;;3.73;2.93;;;;;;;12.61;65.95;96053.13;5045218;28;20723;-72
2021/11/08 09:08:44;;;;;;;3.70;1.90;;;;;;;14.00;62.41;96049.06;5043458;28;20253;-72
2021/11/08 09:11:12;;;;;;;9.00;2.90;;;;;;;13.66;61.64;96051.50;5035711;28;20762;-71
2021/11/08 09:13:40;;;;;;;3.60;1.50;;;;;;;14.45;57.92;96053.00;5032823;28;20488;-71
2021/11/08 09:16:12;;;;;;;4.33;2.10;;;;;;;13.75;57.58;96049.53;5038693;28;20225;-72
2021/11/08 09:18:40;;;;;;;2.13;1.40;;;;;;;13.01;60.26;96054.38;5036225;28;20349;-71
2021/11/08 09:21:09;;;;;;;4.97;1.80;;;;;;;13.39;59.64;96052.31;5033430;28;20229;-71
2021/11/08 09:23:37;;;;;;;6.43;1.73;;;;;;;12.81;60.61;96060.31;5038713;28;20225;-71
2021/11/08 09:26:10;;;;;;;5.20;3.67;;;;;;;12.36;61.68;96057.94;5044254;28;20230;-71
2021/11/08 09:28:38;;;;;;;3.60;2.07;;;;;;;12.53;61.24;96067.31;5044796;28;20880;-71
2021/11/08 09:31:07;;;;;;;4.30;2.10;;;;;;;13.53;59.00;96055.88;5027266;28;20778;-71
2021/11/08 09:33:36;;;;;;;3.00;1.53;;;;;;;14.20;57.75;96060.59;5043809;28;20618;-71
2021/11/08 09:36:07;;;;;;;3.60;2.63;;;;;;;15.33;55.27;96056.47;5038661;28;20225;-71
2021/11/08 09:38:38;;;;;;;4.67;2.53;;;;;;;16.34;51.39;96053.50;5046278;28;20315;-71
2021/11/08 09:41:12;;;;;;;4.90;4.03;;;;;;;17.17;50.16;96056.19;5039226;28;20219;-71
2021/11/08 09:43:41;;;;;;;4.63;2.03;;;;;;;17.99;47.36;96046.31;5042824;28;20249;-71
2021/11/08 09:46:09;;;;;;;9.20;2.30;;;;;;;18.55;45.35;96047.97;5034830;28;20212;-71
2021/11/08 09:48:39;;;;;;;3.97;2.20;;;;;;;18.55;46.19;96059.47;5041125;28;20230;-72
2021/11/08 09:51:08;;;;;;;5.63;1.90;;;;;;;19.11;45.77;96057.56;5049992;28;20699;-71
2021/11/08 09:53:37;;;;;;;1.87;1.67;;;;;;;19.17;45.36;96059.31;5043811;28;20253;-71
2021/11/08 09:56:09;;;;;;;4.37;2.77;;;;;;;18.42;46.23;96063.13;5042758;28;20738;-71
2021/11/08 09:58:57;;;;;;;1.30;1.20;;;;;;;18.80;45.19;96064.75;5040745;28;20237;-71
2021/11/08 10:01:47;;;;;;;4.43;2.40;;;;;;;19.01;44.44;96071.47;5045174;28;20228;-71
2021/11/08 10:04:17;;;;;;;5.70;2.33;;;;;;;18.76;44.39;96074.28;5041754;28;20222;-71
2021/11/08 10:06:45;;;;;;;5.00;1.80;;;;;;;18.39;45.17;96074.28;5050622;28;20322;-72
2021/11/08 10:09:19;;;;;;;3.03;1.13;;;;;;;18.96;44.76;96079.38;5046396;28;20274;-71
2021/11/08 10:11:51;;;;;;;4.70;1.43;;;;;;;19.45;44.07;96078.25;5046211;28;20292;-71
2021/11/08 10:14:19;;;;;;;5.30;2.30;;;;;;;19.49;43.88;96079.44;5047337;28;20296;-71
2021/11/08 10:16:51;;;;;;;4.23;1.67;;;;;;;19.72;43.31;96075.19;5042250;28;20254;-71
2021/11/08 10:19:22;;;;;;;6.27;2.77;;;;;;;20.20;42.40;96082.19;5043151;28;20314;-71
2021/11/08 10:21:53;;;;;;;6.30;2.23;;;;;;;20.25;42.77;96077.78;5047174;28;20333;-71
2021/11/08 10:24:24;;;;;;;5.27;3.50;;;;;;;20.22;42.36;96080.13;5039822;28;20223;-71
2021/11/08 10:26:56;;;;;;;5.43;1.43;;;;;;;20.24;42.10;96070.78;5036472;28;20223;-71
2021/11/08 10:29:26;;;;;;;3.43;1.13;;;;;;;20.18;42.35;96077.09;5041745;28;20222;-71
2021/11/08 10:32:11;;;;;;;3.80;1.70;;;;;;;19.67;43.61;96069.72;5028610;28;20226;-71
2021/11/08 10:34:49;;;;;;;5.50;2.43;;;;;;;20.22;42.53;96074.78;5032344;28;20226;-72
2021/11/08 10:37:24;;;;;;;2.53;2.07;;;;;;;20.57;41.73;96075.53;5026459;28;20376;-71
2021/11/08 10:39:54;;;;;;;4.73;1.47;;;;;;;21.19;42.25;96078.38;5029074;28;20347;-71
2021/11/08 10:42:27;;;;;;;3.70;1.60;;;;;;;21.78;40.66;96070.88;5028208;28;20277;-72
2021/11/08 10:44:56;;;;;;;6.73;1.67;;;;;;;22.24;38.71;96074.28;5031848;28;20624;-71
2021/11/08 10:47:28;;;;;;;2.20;1.57;;;;;;;21.67;39.17;96066.38;5033886;28;20584;-72
2021/11/08 10:49:57;;;;;;;5.20;2.30;;;;;;;21.70;39.12;96068.56;5047465;28;20638;-71
2021/11/08 10:52:30;;;;;;;2.43;1.83;;;;;;;21.39;39.73;96069.09;5038808;28;20228;-71
2021/11/08 10:54:59;;;;;;;6.93;2.80;;;;;;;20.83;39.72;96068.84;5038000;28;20228;-71
2021/11/08 10:57:30;;;;;;;4.00;1.37;;;;;;;20.59;39.28;96062.75;5025933;28;20250;-71
2021/11/08 11:00:00;;;;;;;2.50;0.93;;;;;;;19.92;40.57;96067.63;5025445;28;20215;-71
2021/11/08 11:02:32;;;;;;;3.40;1.63;;;;;;;19.59;41.40;96062.84;5029488;28;20306;-71
2021/11/08 11:05:03;;;;;;;3.83;1.53;;;;;;;19.40;41.30;96058.59;5037082;28;20220;-71
2021/11/08 11:07:34;;;;;;;2.70;1.63;;;;;;;19.51;42.46;96055.94;5039388;28;20255;-71
2021/11/08 11:10:07;;;;;;;5.47;1.40;;;;;;;19.74;42.45;96049.00;5027409;28;20767;-71
2021/11/08 11:12:37;;;;;;;4.67;1.70;;;;;;;19.33;41.96;96061.34;5022843;28;20720;-71
2021/11/08 11:15:09;;;;;;;5.33;2.50;;;;;;;19.35;42.60;96048.56;5033744;28;20234;-71
2021/11/08 11:17:41;;;;;;;4.77;2.10;;;;;;;19.50;43.33;96054.31;5044427;28;20226;-71
2021/11/08 11:20:12;;;;;;;5.33;2.67;;;;;;;19.74;43.92;96049.81;5046372;28;20223;-72
2021/11/08 11:22:53;;;;;;;5.87;2.23;;;;;;;19.36;43.28;96052.06;5041658;28;20692;-72
2021/11/08 11:25:22;;;;;;;5.30;3.87;;;;;;;18.22;43.89;96054.53;5032471;28;20530;-71
2021/11/08 11:27:53;;;;;;;5.13;2.00;;;;;;;17.22;45.81;96056.38;5042595;28;20250;-71
2021/11/08 11:30:24;;;;;;;6.23;3.17;;;;;;;16.93;47.48;96055.13;5043782;28;20326;-71
2021/11/08 11:33:00;;;;;;;4.30;1.87;;;;;;;17.12;47.52;96043.53;5034974;28;20235;-71
2021/11/08 11:35:40;;;;;;;1.37;1.23;;;;;;;17.11;47.21;96047.22;5034278;28;20487;-71
2021/11/08 11:38:10;;;;;;;6.00;1.90;;;;;;;16.96;48.56;96052.03;5046533;28;20530;-71
2021/11/08 11:40:41;;;;;;;5.07;2.97;;;;;;;16.71;49.51;96052.75;5037251;28;20508;-71
2021/11/08 11:43:14;;;;;;;4.30;2.63;;;;;;;16.80;48.33;96057.84;5029261;28;20239;-71
2021/11/08 11:45:47;;;;;;;3.10;2.00;;;;;;;16.59;48.79;96046.44;5033970;28;20473;-71
2021/11/08 11:48:17;;;;;;;7.67;4.13;;;;;;;15.89;50.07;96062.19;5029873;28;20222;-71
2021/11/08 11:51:06;;;;;;;3.97;1.30;;;;;;;15.01;52.35;96060.72;5021446;28;20231;-70
2021/11/08 11:53:35;;;;;;;2.50;2.30;;;;;;;15.18;53.14;96055.81;5044087;28;20426;-71
2021/11/08 11:56:04;;;;;;;5.40;2.07;;;;;;;15.28;52.27;96053.63;5033432;28;20716;-71
2021/11/08 11:58:35;;;;;;;2.27;1.73;;;;;;;14.95;52.34;96062.34;5044242;28;20398;-71
2021/11/08 12:01:05;;;;;;;2.87;2.10;;;;;;;15.02;52.69;96060.53;5023439;28;21056;-71
2021/11/08 12:03:34;;;;;;;5.43;1.93;;;;;;;15.17;52.00;96060.31;5017273;28;20320;-72
2021/11/08 12:06:03;;;;;;;4.27;2.13;;;;;;;14.73;51.37;96052.91;5042462;28;20776;-71
2021/11/08 12:08:35;;;;;;;4.40;1.33;;;;;;;14.80;53.06;96051.06;5030081;28;20276;-71
2021/11/08 12:11:05;;;;;;;6.33;3.00;;;;;;;14.97;51.92;96054.97;5039104;28;20739;-72
2021/11/08 12:13:40;;;;;;;2.77;1.27;;;;;;;15.45;50.79;96044.19;5040497;28;20502;-71
2021/11/08 12:16:14;;;;;;;9.17;3.03;;;;;;;15.55;50.07;96041.97;5024274;28;20230;-71
2021/11/08 12:18:45;;;;;;;6.33;2.50;;;;;;;15.33;50.03;96036.00;5028280;28;20289;-71
2021/11/08 12:21:22;;;;;;;3.63;2.83;;;;;;;14.70;50.73;96040.00;5012302;28;20224;-71
2021/11/08 12:23:52;;;;;;;2.50;1.73;;;;;;;13.90;52.36;96044.94;5004776;28;20220;-71
2021/11/08 12:26:21;;;;;;;1.57;1.07;;;;;;;13.27;53.69;96044.06;5006499;28;20255;-72
2021/11/08 12:28:52;;;;;;;3.97;2.23;;;;;;;13.02;55.21;96032.19;5004842;28;20219;-72
2021/11/08 12:31:23;;;;;;;1.90;1.23;;;;;;;12.75;53.68;96023.97;5003836;28;20758;-72
2021/11/08 12:34:00;;;;;;;5.47;2.13;;;;;;;12.76;51.70;96017.66;5005353;28;20577;-71
2021/11/08 12:36:28;;;;;;;2.80;1.57;;;;;;;12.86;52.43;96029.78;5003096;28;20216;-72
2021/11/08 12:39:00;;;;;;;2.93;2.47;;;;;;;13.03;52.21;96020.56;5003661;28;20226;-71
2021/11/08 12:41:33;;;;;;;4.60;2.57;;;;;;;13.12;52.98;96019.44;5003345;28;20247;-71
2021/11/08 12:44:06;;;;;;;4.03;1.77;;;;;;;13.03;52.86;96015.28;5003755;28;21415;-71
2021/11/08 12:46:39;;;;;;;2.97;1.43;;;;;;;12.95;54.66;96012.75;5016215;28;20313;-71
2021/11/08 12:49:12;;;;;;;2.87;1.80;;;;;;;13.12;54.56;96011.47;5014444;28;20250;-71
2021/11/08 12:51:50;;;;;;;3.03;1.70;;;;;;;13.11;54.85;96012.50;5017098;28;20289;-70
2021/11/08 12:54:18;;;;;;;2.43;1.60;;;;;;;12.93;55.15;96020.06;5013925;28;20252;-71
2021/11/08 12:56:47;;;;;;;8.17;2.70;;;;;;;12.68;55.59;96014.31;5015533;28;20223;-71
2021/11/08 12:59:23;;;;;;;12.53;2.07;;;;;;;12.37;56.67;96014.59;5004022;28;20245;-71
2021/11/08 13:01:55;;;;;;;4.33;1.20;;;;;;;12.20;55.51;96006.88;5003211;28;20278;-71
2021/11/08 13:04:32;;;;;;;1.83;1.73;;;;;;;12.17;57.03;96017.84;5001977;28;20231;-72
2021/11/08 13:07:08;;;;;;;7.07;3.00;;;;;;;12.07;56.83;96017.31;5004957;28;20312;-72
2021/11/08 13:09:42;;;;;;;7.87;3.17;;;;;;;11.69;58.08;96027.91;5009771;28;20693;-72
2021/11/08 13:12:13;;;;;;;16.03;4.60;;;;;;;11.50;59.40;96025.00;5002436;28;20311;-71
2021/11/08 13:14:44;;;;;;;5.43;1.80;;;;;;;11.28;59.41;96024.06;5009731;28;20319;-71
2021/11/08 13:17:18;;;;;;;6.80;1.27;;;;;;;10.89;60.20;96029.50;5023675;28;20242;-69
2021/11/08 13:19:49;;;;;;;3.63;1.97;;;;;;;10.71;60.17;96032.44;5016040;28;20219;-72